Time;durP1;ratioP1;P1;durP2;ratioP2;P2;SDS_P1;SDS_P2;PMS_P1;PMS_P2;Temp;Humidity;BMP_temperature;BMP_pressure;BME280_temperature;BME280_humidity;BME280_pressure;Samples;Min_cycle;Max_cycle;Signal;HPM_P1;HPM_P2
2021/05/29 00:01:24;;;;;;;7.07;5.28;;;;;;;24.64;37.41;102258.78;5053120;28;20056;-81
2021/05/29 00:03:50;;;;;;;12.70;5.97;;;;;;;24.95;36.86;102256.88;5052995;28;20378;-72
2021/05/29 00:06:16;;;;;;;7.78;6.07;;;;;;;25.14;36.52;102243.63;5052364;28;20025;-72
2021/05/29 00:08:42;;;;;;;9.88;7.05;;;;;;;25.31;36.42;102252.66;5052593;28;20107;-72
2021/05/29 00:11:08;;;;;;;11.40;6.82;;;;;;;25.28;36.13;102259.00;5052559;28;20033;-73
2021/05/29 00:13:35;;;;;;;15.55;6.10;;;;;;;25.31;36.09;102259.06;5052464;28;20060;-72
2021/05/29 00:16:01;;;;;;;6.18;5.35;;;;;;;25.30;36.34;102265.84;5052866;28;20029;-72
2021/05/29 00:18:27;;;;;;;9.50;5.60;;;;;;;25.23;36.12;102260.13;5052787;28;20032;-72
2021/05/29 00:20:54;;;;;;;11.63;6.32;;;;;;;25.25;36.30;102260.59;5052809;28;20386;-72
2021/05/29 00:23:20;;;;;;;8.77;6.05;;;;;;;25.21;36.49;102262.50;5034844;28;20450;-72
2021/05/29 00:25:46;;;;;;;10.80;6.40;;;;;;;25.29;36.01;102261.44;5052744;28;20025;-73
2021/05/29 00:28:13;;;;;;;11.20;6.75;;;;;;;25.31;36.20;102253.47;5052491;28;20039;-73
2021/05/29 00:30:40;;;;;;;14.02;7.55;;;;;;;25.34;36.05;102257.50;5052794;28;20021;-72
2021/05/29 00:33:07;;;;;;;8.07;6.68;;;;;;;25.38;35.93;102252.75;5052423;28;20070;-72
2021/05/29 00:35:33;;;;;;;8.35;6.95;;;;;;;25.39;36.03;102260.78;5052658;28;20021;-72
2021/05/29 00:37:59;;;;;;;12.23;6.57;;;;;;;25.29;36.15;102261.44;5052489;28;20064;-72
2021/05/29 00:40:25;;;;;;;7.70;6.40;;;;;;;25.34;36.30;102251.91;5052190;28;20029;-72
2021/05/29 00:42:51;;;;;;;11.15;6.82;;;;;;;25.21;36.35;102248.53;5052127;28;20017;-72
2021/05/29 00:45:17;;;;;;;9.80;7.63;;;;;;;25.23;36.35;102262.13;5052141;28;20037;-72
2021/05/29 00:47:42;;;;;;;10.48;7.35;;;;;;;25.31;36.22;102261.84;5051798;28;20036;-73
2021/05/29 00:50:11;;;;;;;11.15;7.80;;;;;;;25.09;36.50;102257.13;5052350;28;20025;-72
2021/05/29 00:52:38;;;;;;;9.93;7.65;;;;;;;25.24;36.43;102260.94;5052352;28;20029;-72
2021/05/29 00:55:07;;;;;;;10.32;7.60;;;;;;;25.29;36.35;102264.22;5052418;28;20025;-72
2021/05/29 00:57:33;;;;;;;12.98;8.52;;;;;;;25.29;36.34;102264.22;5052278;28;20029;-71
2021/05/29 00:59:59;;;;;;;12.05;8.48;;;;;;;25.25;36.37;102260.59;5051801;28;20032;-81
2021/05/29 01:02:24;;;;;;;8.35;7.45;;;;;;;25.25;36.55;102268.19;5052017;28;20029;-72
2021/05/29 01:04:50;;;;;;;10.73;8.65;;;;;;;25.28;36.58;102265.41;5034302;28;20040;-72
2021/05/29 01:07:17;;;;;;;13.02;9.27;;;;;;;25.31;36.50;102256.25;5051517;28;20033;-72
2021/05/29 01:09:44;;;;;;;13.48;8.43;;;;;;;25.30;36.16;102254.66;5029756;28;20036;-75
2021/05/29 01:12:13;;;;;;;11.07;8.23;;;;;;;25.25;36.17;102252.19;5022995;28;20059;-74
2021/05/29 01:14:45;;;;;;;12.88;8.48;;;;;;;25.29;36.45;102246.63;5042768;28;20044;-77
2021/05/29 01:17:10;;;;;;;25.60;9.13;;;;;;;25.40;35.99;102254.00;5042742;28;20053;-76
2021/05/29 01:19:36;;;;;;;11.98;8.38;;;;;;;25.33;36.45;102255.91;5024254;28;20060;-74
2021/05/29 01:22:09;;;;;;;12.68;8.70;;;;;;;25.33;36.17;102250.31;5046568;28;20083;-76
2021/05/29 01:24:36;;;;;;;9.68;7.50;;;;;;;25.42;36.21;102250.81;5026083;28;20541;-76
2021/05/29 01:27:03;;;;;;;9.82;7.70;;;;;;;25.39;35.83;102251.56;5043285;28;20025;-75
2021/05/29 01:29:29;;;;;;;10.50;7.20;;;;;;;25.36;36.28;102252.34;5044114;28;20116;-75
2021/05/29 01:32:19;;;;;;;9.18;7.38;;;;;;;25.34;36.02;102255.50;5025939;28;20053;-75
2021/05/29 01:34:41;;;;;;;10.48;7.95;;;;;;;25.23;36.43;102256.53;5045038;28;20055;-75
2021/05/29 01:37:07;;;;;;;10.55;7.82;;;;;;;25.16;36.64;102258.06;5044105;28;20045;-75
2021/05/29 01:39:32;;;;;;;11.13;7.82;;;;;;;25.12;36.66;102262.78;5044429;28;20027;-76
2021/05/29 01:41:59;;;;;;;10.50;7.50;;;;;;;25.11;36.66;102263.97;5025161;28;20032;-75
2021/05/29 01:44:25;;;;;;;10.98;7.13;;;;;;;25.09;36.68;102265.50;5043746;28;20464;-75
2021/05/29 01:46:52;;;;;;;9.57;7.32;;;;;;;25.14;36.41;102265.19;5059238;28;20028;-75
2021/05/29 01:49:18;;;;;;;10.00;6.53;;;;;;;25.13;36.22;102274.78;5046297;28;20057;-75
2021/05/29 01:51:44;;;;;;;14.00;7.20;;;;;;;25.09;36.49;102268.31;5043260;28;20436;-74
2021/05/29 01:54:13;;;;;;;11.15;7.30;;;;;;;24.99;36.39;102274.50;5045262;28;20100;-74
2021/05/29 01:56:38;;;;;;;11.02;7.20;;;;;;;24.90;36.92;102277.56;5042673;28;20432;-75
2021/05/29 01:59:04;;;;;;;8.85;6.55;;;;;;;24.95;36.50;102277.28;5042537;28;20057;-75
2021/05/29 02:01:30;;;;;;;10.27;6.45;;;;;;;24.91;36.57;102279.19;5044953;28;20434;-75
2021/05/29 02:03:55;;;;;;;10.20;7.30;;;;;;;24.90;36.94;102283.97;5042557;28;20028;-75
2021/05/29 02:06:21;;;;;;;9.65;6.78;;;;;;;24.91;36.79;102285.59;5024393;28;20029;-74
2021/05/29 02:08:46;;;;;;;8.98;7.13;;;;;;;24.94;36.86;102286.84;5025148;28;20091;-74
2021/05/29 02:11:12;;;;;;;9.07;6.95;;;;;;;24.99;36.81;102289.31;5027014;28;20033;-74
2021/05/29 02:13:43;;;;;;;12.07;7.18;;;;;;;24.97;37.08;102282.47;5026337;28;20511;-73
2021/05/29 02:16:11;;;;;;;9.27;7.18;;;;;;;24.99;36.89;102286.50;5042367;28;20383;-73
2021/05/29 02:18:38;;;;;;;11.65;7.50;;;;;;;24.97;37.20;102288.06;5047981;28;20035;-81
2021/05/29 02:21:09;;;;;;;8.63;6.20;;;;;;;24.95;37.17;102293.25;5035077;28;20392;-72
2021/05/29 02:23:36;;;;;;;8.93;7.20;;;;;;;24.92;36.77;102290.00;5049302;28;20052;-72
2021/05/29 02:26:11;;;;;;;9.75;7.45;;;;;;;24.91;36.85;102295.97;5075079;28;20032;-72
2021/05/29 02:28:39;;;;;;;8.65;6.47;;;;;;;24.64;37.35;102283.94;5074759;28;20127;-72
2021/05/29 02:31:05;;;;;;;10.80;7.43;;;;;;;24.99;37.00;102291.28;5056705;28;20478;-72
2021/05/29 02:33:33;;;;;;;9.00;6.55;;;;;;;24.99;37.06;102297.69;5075103;28;20389;-72
2021/05/29 02:35:58;;;;;;;9.02;6.53;;;;;;;24.89;36.98;102299.13;5074588;28;20044;-72
2021/05/29 02:38:28;;;;;;;8.85;6.60;;;;;;;24.90;37.31;102295.16;5074807;28;20021;-72
2021/05/29 02:40:55;;;;;;;9.52;7.28;;;;;;;24.86;36.99;102299.91;5075118;28;20024;-73
2021/05/29 02:43:21;;;;;;;9.18;7.22;;;;;;;24.96;37.16;102294.84;5056646;28;20444;-72
2021/05/29 02:45:47;;;;;;;14.35;7.32;;;;;;;25.02;36.92;102296.97;5056580;28;20111;-72
2021/05/29 02:48:14;;;;;;;9.25;6.97;;;;;;;25.01;36.74;102300.09;5074535;28;20119;-72
2021/05/29 02:50:42;;;;;;;10.75;7.07;;;;;;;24.95;37.08;102296.03;5074543;28;20028;-73
2021/05/29 02:53:08;;;;;;;9.35;7.25;;;;;;;24.96;37.05;102306.03;5074507;28;20071;-73
2021/05/29 02:55:35;;;;;;;8.68;7.35;;;;;;;24.96;37.05;102300.44;5074452;28;20020;-72
2021/05/29 02:58:01;;;;;;;8.95;7.53;;;;;;;24.99;36.78;102305.28;5074471;28;20020;-72
2021/05/29 03:00:32;;;;;;;11.52;6.90;;;;;;;25.02;36.81;102304.53;5067552;28;20383;-72
2021/05/29 03:02:59;;;;;;;9.55;7.30;;;;;;;25.00;36.78;102306.88;5050647;28;20025;-72
2021/05/29 03:05:25;;;;;;;15.85;7.90;;;;;;;24.99;36.70;102314.47;5054256;28;20399;-72
2021/05/29 03:07:51;;;;;;;9.75;7.95;;;;;;;24.93;36.67;102315.97;5054078;28;20032;-72
2021/05/29 03:10:20;;;;;;;14.18;8.07;;;;;;;24.89;36.85;102315.91;5054155;28;20025;-78
2021/05/29 03:12:47;;;;;;;11.32;7.80;;;;;;;24.89;36.80;102313.13;5054178;28;20017;-72
2021/05/29 03:15:16;;;;;;;10.98;8.10;;;;;;;24.85;36.83;102309.44;5054074;28;20502;-72
2021/05/29 03:17:43;;;;;;;10.55;7.22;;;;;;;24.88;36.92;102313.50;5054017;28;20021;-72
2021/05/29 03:20:13;;;;;;;11.57;7.13;;;;;;;24.87;36.70;102309.91;5054004;28;20028;-72
2021/05/29 03:22:38;;;;;;;11.88;8.13;;;;;;;24.83;36.84;102313.78;5053996;28;20029;-73
2021/05/29 03:25:07;;;;;;;12.65;9.10;;;;;;;24.80;36.83;102312.56;5054019;28;20044;-72
2021/05/29 03:27:33;;;;;;;10.27;8.20;;;;;;;24.67;37.13;102316.72;5053590;28;20026;-72
2021/05/29 03:29:58;;;;;;;12.50;9.43;;;;;;;24.65;37.65;102316.28;5053610;28;20047;-72
2021/05/29 03:32:24;;;;;;;11.95;8.80;;;;;;;24.73;37.45;102306.84;5053882;28;20025;-72
2021/05/29 03:34:50;;;;;;;12.20;8.32;;;;;;;24.86;37.24;102305.50;5053739;28;20024;-72
2021/05/29 03:37:15;;;;;;;10.13;7.88;;;;;;;24.89;36.99;102310.31;5053637;28;20025;-72
2021/05/29 03:39:41;;;;;;;11.27;8.05;;;;;;;24.95;36.84;102312.81;5053629;28;20033;-72
2021/05/29 03:42:07;;;;;;;10.70;8.63;;;;;;;24.96;36.64;102311.63;5052925;28;20498;-73
2021/05/29 03:44:33;;;;;;;14.73;8.82;;;;;;;24.92;36.81;102309.56;5053667;28;20108;-72
2021/05/29 03:46:59;;;;;;;12.90;9.52;;;;;;;24.86;37.20;102315.84;5053404;28;20021;-73
2021/05/29 03:49:24;;;;;;;13.13;9.13;;;;;;;24.92;37.05;102314.34;5053498;28;20390;-72
2021/05/29 03:51:50;;;;;;;15.10;9.85;;;;;;;24.85;36.93;102317.00;5053440;28;20036;-72
2021/05/29 03:54:16;;;;;;;11.48;8.50;;;;;;;24.90;36.98;102316.72;5053383;28;20021;-72
2021/05/29 03:56:42;;;;;;;12.25;9.02;;;;;;;24.91;37.10;102323.91;5053318;28;20483;-72
2021/05/29 03:59:13;;;;;;;12.02;9.38;;;;;;;24.86;37.21;102315.84;5053299;28;20117;-72
2021/05/29 04:01:39;;;;;;;13.90;10.38;;;;;;;24.92;36.75;102323.53;5053268;28;20095;-72
2021/05/29 04:04:06;;;;;;;14.70;10.73;;;;;;;24.81;37.40;102321.75;5053209;28;20028;-73
2021/05/29 04:06:32;;;;;;;16.15;9.80;;;;;;;24.87;37.25;102323.06;5053098;28;20040;-72
2021/05/29 04:08:58;;;;;;;18.45;11.93;;;;;;;24.83;37.15;102320.19;5053023;28;20029;-72
2021/05/29 04:11:24;;;;;;;14.15;11.02;;;;;;;24.92;36.97;102325.53;5053067;28;20024;-74
2021/05/29 04:13:50;;;;;;;14.20;9.93;;;;;;;24.90;37.14;102319.50;5034982;28;20041;-72
2021/05/29 04:16:15;;;;;;;12.20;9.73;;;;;;;24.80;36.84;102323.75;5053018;28;20021;-72
2021/05/29 04:18:41;;;;;;;15.82;10.40;;;;;;;24.75;37.20;102318.47;5052937;28;20032;-72
2021/05/29 04:21:07;;;;;;;16.77;11.55;;;;;;;24.70;37.29;102317.94;5052953;28;20475;-72
2021/05/29 04:23:32;;;;;;;12.75;10.20;;;;;;;24.71;37.17;102314.81;5052950;28;20021;-72
2021/05/29 04:25:58;;;;;;;18.02;11.25;;;;;;;24.74;37.42;102324.41;5052808;28;20349;-72
2021/05/29 04:28:24;;;;;;;15.90;10.35;;;;;;;24.75;37.05;102326.03;5052584;28;20045;-72
2021/05/29 04:30:49;;;;;;;17.13;11.13;;;;;;;24.59;37.29;102324.16;5052168;28;20032;-73
2021/05/29 04:33:15;;;;;;;14.85;10.85;;;;;;;24.70;37.19;102324.34;5050968;28;20485;-72
2021/05/29 04:35:41;;;;;;;13.38;11.18;;;;;;;24.74;37.24;102325.22;5051925;28;20082;-72
2021/05/29 04:38:07;;;;;;;13.50;10.82;;;;;;;24.72;37.26;102327.59;5052567;28;20029;-74
2021/05/29 04:40:32;;;;;;;14.40;11.40;;;;;;;24.63;37.03;102330.59;5052285;28;20025;-72
2021/05/29 04:43:00;;;;;;;14.77;11.45;;;;;;;24.66;37.05;102323.50;5052679;28;20025;-72
2021/05/29 04:45:26;;;;;;;15.98;11.27;;;;;;;24.60;36.97;102328.56;5052512;28;20025;-72
2021/05/29 04:47:53;;;;;;;18.92;12.18;;;;;;;24.63;37.13;102330.59;5052454;28;20484;-72
2021/05/29 04:50:19;;;;;;;16.90;13.50;;;;;;;24.58;36.96;102332.91;5052465;28;20411;-72
2021/05/29 04:52:45;;;;;;;17.45;11.88;;;;;;;24.44;37.44;102332.66;5034425;28;20391;-72
2021/05/29 04:55:12;;;;;;;14.20;10.95;;;;;;;24.49;36.98;102326.78;5034723;28;20033;-72
2021/05/29 04:57:38;;;;;;;15.02;10.95;;;;;;;24.42;37.12;102332.22;5034131;28;20036;-73
2021/05/29 05:00:06;;;;;;;15.65;12.25;;;;;;;24.43;36.88;102337.44;5034409;28;20025;-72
2021/05/29 05:02:32;;;;;;;18.27;13.38;;;;;;;24.44;36.98;102341.84;5052391;28;20061;-72
2021/05/29 05:04:58;;;;;;;19.35;13.75;;;;;;;24.38;37.03;102336.91;5052347;28;20506;-72
2021/05/29 05:07:23;;;;;;;14.57;11.45;;;;;;;24.37;37.29;102344.50;5034301;28;20037;-72
2021/05/29 05:09:49;;;;;;;16.35;11.40;;;;;;;24.45;36.92;102343.44;5052417;28;20111;-72
2021/05/29 05:12:14;;;;;;;18.25;11.82;;;;;;;24.43;37.18;102351.41;5052309;28;20029;-72
2021/05/29 05:14:40;;;;;;;16.08;12.85;;;;;;;24.42;37.32;102348.97;5034355;28;20033;-72
2021/05/29 05:17:06;;;;;;;21.85;13.63;;;;;;;24.39;37.40;102360.88;5034314;28;20410;-72
2021/05/29 05:19:31;;;;;;;18.70;12.75;;;;;;;24.45;37.11;102353.81;5052174;28;20075;-77
2021/05/29 05:21:57;;;;;;;16.17;12.13;;;;;;;24.43;37.18;102364.56;5034297;28;20110;-72
2021/05/29 05:24:23;;;;;;;17.85;12.98;;;;;;;24.49;37.31;102363.09;5052189;28;20036;-72
2021/05/29 05:26:48;;;;;;;17.65;12.32;;;;;;;24.52;37.03;102367.94;5052175;28;20032;-72
2021/05/29 05:29:14;;;;;;;16.38;12.27;;;;;;;24.47;37.35;102376.59;5034051;28;20048;-73
2021/05/29 05:31:42;;;;;;;16.15;12.88;;;;;;;24.54;37.15;102365.56;5052058;28;20051;-72
2021/05/29 05:34:09;;;;;;;17.52;11.85;;;;;;;24.51;37.34;102360.72;5034262;28;20032;-73
2021/05/29 05:36:39;;;;;;;17.08;12.45;;;;;;;24.46;37.31;102373.00;5050764;28;20033;-72
2021/05/29 05:39:13;;;;;;;19.17;12.05;;;;;;;24.41;37.29;102383.66;5052044;28;20041;-72
2021/05/29 05:41:39;;;;;;;18.00;12.10;;;;;;;24.49;37.49;102385.44;5034182;28;20025;-72
2021/05/29 05:44:06;;;;;;;15.85;10.82;;;;;;;24.69;37.38;102389.00;5051682;28;20060;-78
2021/05/29 05:46:32;;;;;;;17.27;11.35;;;;;;;24.82;37.10;102388.47;5051746;28;20017;-72
2021/05/29 05:48:57;;;;;;;13.10;11.70;;;;;;;25.17;37.07;102393.13;5051910;28;20036;-72
2021/05/29 05:51:25;;;;;;;19.30;12.32;;;;;;;25.41;37.20;102391.91;5051992;28;20529;-82
2021/05/29 05:53:51;;;;;;;17.60;10.85;;;;;;;25.63;36.60;102407.06;5051909;28;20108;-72
2021/05/29 05:56:25;;;;;;;10.18;9.13;;;;;;;25.64;36.92;102408.66;5033961;28;20051;-72
2021/05/29 05:58:52;;;;;;;12.35;9.30;;;;;;;25.55;36.94;102408.94;5051912;28;20078;-72
2021/05/29 06:01:17;;;;;;;15.98;10.68;;;;;;;25.70;36.52;102418.38;5033983;28;20048;-72
2021/05/29 06:03:43;;;;;;;11.77;9.82;;;;;;;25.70;36.23;102421.97;5056625;28;20071;-80
2021/05/29 06:06:09;;;;;;;10.88;8.95;;;;;;;25.63;36.56;102418.25;5073668;28;20474;-72
2021/05/29 06:08:35;;;;;;;12.88;9.02;;;;;;;25.41;37.15;102420.72;5074848;28;20604;-80
2021/05/29 06:11:00;;;;;;;15.70;10.57;;;;;;;25.55;36.90;102424.94;5074912;28;20063;-81
2021/05/29 06:21:33;;;;;;;15.13;10.02;;;;;;;25.70;36.52;102433.16;5046900;28;20036;-77
2021/05/29 06:23:59;;;;;;;12.80;10.40;;;;;;;25.79;36.17;102437.72;5045906;28;20028;-85
2021/05/29 06:26:25;;;;;;;14.02;10.07;;;;;;;25.70;36.58;102449.16;5050766;28;20503;-75
2021/05/29 06:28:50;;;;;;;12.55;8.88;;;;;;;25.64;36.48;102448.66;5058797;28;20048;-75
2021/05/29 06:31:16;;;;;;;11.15;9.85;;;;;;;25.72;36.35;102452.41;5051133;28;20475;-84
2021/05/29 06:33:42;;;;;;;13.98;9.90;;;;;;;25.75;36.28;102450.84;5044224;28;20037;-75
2021/05/29 06:36:08;;;;;;;12.95;9.63;;;;;;;25.56;36.84;102454.53;5060899;28;20036;-82
2021/05/29 06:38:34;;;;;;;12.27;7.93;;;;;;;25.43;37.14;102445.50;5062173;28;20025;-75
2021/05/29 06:40:59;;;;;;;10.60;6.47;;;;;;;25.80;36.22;102456.13;5062378;28;20778;-88
2021/05/29 06:43:25;;;;;;;10.43;7.63;;;;;;;25.90;36.17;102450.69;5063405;28;20109;-85
2021/05/29 06:45:51;;;;;;;13.70;7.45;;;;;;;25.92;36.17;102467.94;5062229;28;20076;-74
2021/05/29 06:48:19;;;;;;;10.20;7.18;;;;;;;26.07;35.97;102477.34;5053990;28;20497;-73
2021/05/29 06:50:50;;;;;;;16.45;8.98;;;;;;;25.86;36.03;102477.03;5060273;28;20064;-72
2021/05/29 06:53:19;;;;;;;9.90;7.55;;;;;;;26.09;35.92;102477.78;5056935;28;20024;-72
2021/05/29 06:58:48;;;;;;;10.35;6.90;;;;;;;26.16;35.59;102477.88;5042265;28;20036;-82
2021/05/29 07:01:16;;;;;;;14.18;6.43;;;;;;;26.27;35.36;102480.81;5046186;28;20085;-87
2021/05/29 07:03:41;;;;;;;8.85;5.93;;;;;;;26.25;35.34;102481.22;5043488;28;20022;-73
2021/05/29 07:06:07;;;;;;;9.80;5.07;;;;;;;26.31;35.23;102484.50;5043094;28;20024;-86
2021/05/29 07:08:33;;;;;;;8.18;4.70;;;;;;;26.35;35.58;102490.94;5040167;28;20025;-74
2021/05/29 07:10:58;;;;;;;14.57;6.18;;;;;;;26.43;34.93;102497.47;5046062;28;20041;-86
2021/05/29 07:13:24;;;;;;;14.05;6.40;;;;;;;26.53;35.05;102500.44;5044149;28;20037;-85
2021/05/29 07:15:50;;;;;;;10.20;6.03;;;;;;;26.57;34.84;102502.47;5044024;28;20032;-73
2021/05/29 07:18:16;;;;;;;6.95;5.68;;;;;;;26.77;34.61;102501.94;5051922;28;20452;-83
2021/05/29 07:20:42;;;;;;;8.40;5.75;;;;;;;26.66;34.58;102500.19;5055705;28;20028;-73
2021/05/29 07:23:08;;;;;;;9.65;5.10;;;;;;;26.83;34.59;102499.63;5062828;28;20021;-75
2021/05/29 07:25:36;;;;;;;7.10;4.38;;;;;;;26.92;34.09;102508.53;5045547;28;20035;-73
2021/05/29 07:28:02;;;;;;;8.23;5.03;;;;;;;26.91;34.26;102517.31;5042533;28;20068;-75
2021/05/29 07:30:28;;;;;;;10.40;4.28;;;;;;;27.04;34.09;102511.06;5044580;28;20051;-87
2021/05/29 07:32:54;;;;;;;6.43;4.35;;;;;;;27.07;34.15;102520.75;5059043;28;20036;-85
2021/05/29 07:35:21;;;;;;;6.85;3.72;;;;;;;27.11;34.08;102521.56;5061283;28;20032;-74
2021/05/29 07:37:46;;;;;;;6.63;4.40;;;;;;;27.07;33.96;102518.75;5062662;28;20105;-73
2021/05/29 07:40:13;;;;;;;13.27;5.10;;;;;;;26.94;34.25;102531.38;5052591;28;20057;-77
2021/05/29 07:42:40;;;;;;;8.27;4.72;;;;;;;26.91;34.36;102523.75;5063948;28;20024;-79
2021/05/29 07:45:07;;;;;;;9.13;5.05;;;;;;;26.85;34.08;102525.28;5055708;28;20021;-84
2021/05/29 07:47:33;;;;;;;7.63;4.72;;;;;;;26.98;33.94;102529.44;5041857;28;20020;-74
2021/05/29 07:49:58;;;;;;;5.93;4.32;;;;;;;27.18;33.38;102529.28;5064105;28;20070;-75
2021/05/29 07:52:24;;;;;;;8.50;4.82;;;;;;;27.22;33.62;102535.75;5062500;28;20128;-80
2021/05/29 07:54:50;;;;;;;7.05;4.90;;;;;;;27.22;33.36;102541.34;5054822;28;20543;-73
2021/05/29 07:57:15;;;;;;;5.68;4.53;;;;;;;27.14;33.73;102542.47;5041734;28;20082;-76
2021/05/29 07:59:42;;;;;;;8.75;4.85;;;;;;;27.08;34.05;102545.59;5060557;28;20020;-76
2021/05/29 08:02:09;;;;;;;8.95;4.60;;;;;;;27.08;33.89;102545.59;5053515;28;20115;-72
2021/05/29 08:04:35;;;;;;;8.95;3.70;;;;;;;26.94;34.21;102545.41;5055706;28;20294;-74
2021/05/29 08:07:01;;;;;;;10.07;4.68;;;;;;;26.91;33.77;102553.78;5058317;28;20045;-72
2021/05/29 08:09:27;;;;;;;6.18;3.80;;;;;;;27.03;33.68;102548.72;5040373;28;20028;-72
2021/05/29 08:11:53;;;;;;;6.45;3.78;;;;;;;26.94;33.78;102539.78;5060327;28;20033;-72
2021/05/29 08:14:19;;;;;;;6.97;3.05;;;;;;;26.98;33.61;102548.25;5058456;28;20021;-75
2021/05/29 08:16:45;;;;;;;5.30;3.35;;;;;;;27.03;33.65;102533.88;5060958;28;20454;-72
2021/05/29 08:19:12;;;;;;;7.07;3.90;;;;;;;26.97;33.85;102549.44;5058159;28;20017;-72
2021/05/29 08:21:39;;;;;;;6.65;4.07;;;;;;;27.04;33.75;102552.34;5058420;28;20032;-72
2021/05/29 08:24:06;;;;;;;4.25;2.60;;;;;;;27.18;33.55;102548.91;5042391;28;20029;-72
2021/05/29 08:26:32;;;;;;;8.10;3.92;;;;;;;27.18;33.29;102562.94;5045407;28;20533;-80
2021/05/29 08:28:58;;;;;;;14.80;3.50;;;;;;;27.19;33.31;102556.94;5041809;28;20049;-74
2021/05/29 08:31:23;;;;;;;7.60;3.00;;;;;;;27.37;32.95;102557.94;5048726;28;20523;-75
2021/05/29 08:33:50;;;;;;;9.05;3.10;;;;;;;27.37;33.24;102571.19;5056142;28;20571;-72
2021/05/29 08:36:15;;;;;;;4.72;2.70;;;;;;;27.48;32.75;102560.84;5060300;28;20099;-73
2021/05/29 08:38:41;;;;;;;19.23;4.32;;;;;;;27.44;33.10;102562.03;5059026;28;20020;-71
2021/05/29 08:41:07;;;;;;;17.17;3.50;;;;;;;27.73;32.49;102561.13;5039027;28;20040;-71
2021/05/29 08:43:34;;;;;;;6.07;2.75;;;;;;;27.78;32.29;102559.97;5056775;28;20029;-71
2021/05/29 08:46:00;;;;;;;4.28;2.40;;;;;;;27.66;32.53;102558.25;5033437;28;20615;-73
2021/05/29 08:48:26;;;;;;;7.13;2.60;;;;;;;27.85;32.52;102572.06;5050217;28;20112;-73
2021/05/29 08:53:35;;;;;;;10.02;2.90;;;;;;;28.19;31.91;102566.31;5054629;28;20793;-76
2021/05/29 08:56:01;;;;;;;9.73;3.13;;;;;;;28.29;31.67;102564.78;5048861;28;20026;-72
2021/05/29 08:58:29;;;;;;;3.95;2.50;;;;;;;28.33;31.74;102563.63;5039294;28;20022;-72
2021/05/29 09:00:55;;;;;;;4.75;2.72;;;;;;;28.46;31.00;102564.91;5039334;28;20618;-73
2021/05/29 09:03:21;;;;;;;9.50;2.72;;;;;;;28.35;31.13;102566.88;5021603;28;20034;-75
2021/05/29 09:05:52;;;;;;;7.53;2.70;;;;;;;28.43;31.23;102570.53;5042880;28;20024;-77
2021/05/29 09:08:23;;;;;;;3.95;2.72;;;;;;;28.54;31.26;102577.00;5039717;28;20349;-74
2021/05/29 09:10:53;;;;;;;3.00;2.30;;;;;;;28.87;30.81;102578.78;5055765;28;20021;-73
2021/05/29 09:13:21;;;;;;;9.23;2.70;;;;;;;28.79;30.99;102579.94;5040560;28;20029;-75
2021/05/29 09:15:59;;;;;;;4.53;2.40;;;;;;;28.88;30.46;102580.41;5050979;28;20035;-84
2021/05/29 09:18:32;;;;;;;8.63;3.10;;;;;;;29.05;30.32;102576.06;5051011;28;20028;-84
2021/05/29 09:21:23;;;;;;;7.55;2.17;;;;;;;29.09;30.39;102576.88;5049869;28;20017;-82
2021/05/29 09:24:13;;;;;;;6.72;2.33;;;;;;;28.82;30.38;102581.97;5048540;28;20021;-74
2021/05/29 09:26:48;;;;;;;5.68;2.72;;;;;;;29.11;30.30;102582.94;5042341;28;20045;-74
2021/05/29 09:29:17;;;;;;;3.97;2.53;;;;;;;29.20;30.49;102586.16;5050386;28;20049;-86
2021/05/29 09:31:59;;;;;;;7.03;3.10;;;;;;;29.17;30.83;102591.78;5050840;28;20025;-73
2021/05/29 09:34:41;;;;;;;5.45;2.72;;;;;;;29.22;30.67;102580.13;5014575;28;20488;-73
2021/05/29 09:37:14;;;;;;;3.95;2.47;;;;;;;29.32;30.58;102584.19;5058068;28;20074;-74
2021/05/29 09:39:46;;;;;;;5.53;3.13;;;;;;;29.24;31.04;102589.78;5044249;28;20070;-77
2021/05/29 09:42:13;;;;;;;3.28;2.03;;;;;;;29.03;30.94;102595.38;5055881;28;20357;-74
2021/05/29 09:44:40;;;;;;;10.18;3.15;;;;;;;29.10;30.51;102595.41;5064798;28;20028;-74
2021/05/29 09:47:08;;;;;;;5.50;3.63;;;;;;;29.01;30.92;102604.19;5053868;28;20082;-73
2021/05/29 09:49:53;;;;;;;8.13;2.70;;;;;;;29.16;30.33;102605.03;5067748;28;20020;-74
2021/05/29 09:52:30;;;;;;;4.20;2.95;;;;;;;29.25;30.22;102602.69;5062769;28;20040;-74
2021/05/29 09:55:03;;;;;;;5.55;2.58;;;;;;;29.16;30.44;102605.03;5061900;28;20108;-74
2021/05/29 09:57:29;;;;;;;3.58;2.75;;;;;;;29.29;30.17;102609.13;5063639;28;20056;-80
2021/05/29 09:59:57;;;;;;;3.90;2.83;;;;;;;29.26;30.29;102615.56;5062747;28;20066;-73
2021/05/29 10:02:23;;;;;;;5.45;2.90;;;;;;;29.32;29.98;102612.34;5055692;28;20025;-85
2021/05/29 10:04:57;;;;;;;5.78;3.10;;;;;;;29.42;29.89;102609.56;5055506;28;20475;-73
2021/05/29 10:07:40;;;;;;;5.90;3.20;;;;;;;29.35;30.25;102608.75;5055304;28;20388;-75
2021/05/29 10:10:07;;;;;;;4.93;2.60;;;;;;;29.52;30.02;102610.81;5055488;28;20376;-73
2021/05/29 10:12:32;;;;;;;8.63;2.78;;;;;;;29.57;29.86;102613.25;5055090;28;20025;-74
2021/05/29 10:14:58;;;;;;;10.32;4.30;;;;;;;29.53;30.19;102609.59;5054999;28;20028;-73
2021/05/29 10:17:24;;;;;;;6.78;3.08;;;;;;;29.65;30.05;102614.88;5055107;28;20033;-72
2021/05/29 10:19:52;;;;;;;5.18;3.15;;;;;;;29.61;29.81;102616.06;5055185;28;20028;-72
2021/05/29 10:22:18;;;;;;;6.10;2.40;;;;;;;29.68;29.79;102613.25;5053571;28;20052;-72
2021/05/29 10:24:49;;;;;;;6.97;2.78;;;;;;;29.58;29.97;102617.66;5037098;28;20036;-75
2021/05/29 10:27:24;;;;;;;4.35;2.60;;;;;;;29.87;29.87;102612.09;5053653;28;20025;-72
2021/05/29 10:29:54;;;;;;;4.07;2.70;;;;;;;29.51;29.91;102624.09;5054387;28;20049;-74
2021/05/29 10:32:20;;;;;;;5.03;2.72;;;;;;;29.73;29.69;102621.31;5054839;28;20029;-72
2021/05/29 10:35:00;;;;;;;3.92;2.65;;;;;;;29.50;29.94;102616.03;5053471;28;20032;-72
2021/05/29 10:37:33;;;;;;;4.18;2.85;;;;;;;29.87;29.45;102610.06;5055094;28;20032;-71
2021/05/29 10:40:25;;;;;;;5.15;2.40;;;;;;;29.79;30.10;102616.91;5036647;28;20021;-72
2021/05/29 10:43:15;;;;;;;5.93;3.20;;;;;;;30.02;29.41;102614.50;5057822;28;20044;-73
2021/05/29 10:45:50;;;;;;;5.38;2.45;;;;;;;29.71;29.43;102612.47;5074694;28;20074;-73
2021/05/29 10:48:17;;;;;;;4.35;2.50;;;;;;;29.82;29.70;102613.28;5056700;28;20032;-73
2021/05/29 10:53:43;;;;;;;9.13;3.20;;;;;;;29.58;29.74;102619.69;5074308;28;20597;-76
2021/05/29 10:56:20;;;;;;;4.73;2.97;;;;;;;29.48;29.58;102615.63;5074561;28;20028;-85
2021/05/29 10:59:14;;;;;;;6.72;2.47;;;;;;;29.68;29.42;102624.53;5074529;28;20032;-72
2021/05/29 11:01:43;;;;;;;4.47;2.97;;;;;;;29.95;29.44;102617.31;5049589;28;20447;-73
2021/05/29 11:04:15;;;;;;;4.03;2.70;;;;;;;29.93;28.91;102621.75;5063865;28;20029;-73
2021/05/29 11:07:10;;;;;;;6.68;2.70;;;;;;;29.85;29.15;102632.19;5046532;28;20024;-73
2021/05/29 11:09:36;;;;;;;2.53;2.20;;;;;;;29.88;29.46;102630.59;5044778;28;20067;-74
2021/05/29 11:12:03;;;;;;;4.32;2.40;;;;;;;29.72;29.07;102628.97;5065877;28;20052;-76
2021/05/29 11:14:45;;;;;;;10.40;2.50;;;;;;;29.63;29.20;102633.38;5073542;28;20506;-73
2021/05/29 11:17:12;;;;;;;4.53;2.33;;;;;;;29.69;28.77;102626.94;5074141;28;20090;-73
2021/05/29 11:19:39;;;;;;;5.30;2.60;;;;;;;29.56;29.24;102631.34;5073944;28;20020;-79
2021/05/29 11:22:14;;;;;;;4.97;2.53;;;;;;;29.64;29.12;102632.97;5056102;28;20028;-73
2021/05/29 11:24:59;;;;;;;4.30;2.50;;;;;;;29.46;29.13;102638.53;5056106;28;20047;-74
2021/05/29 11:27:33;;;;;;;9.07;2.83;;;;;;;29.49;29.39;102629.28;5055599;28;20104;-72
2021/05/29 11:30:14;;;;;;;5.82;2.80;;;;;;;29.60;29.76;102631.34;5073597;28;20121;-82
2021/05/29 11:35:23;;;;;;;4.05;3.45;;;;;;;29.64;30.03;102635.00;5073353;28;20051;-72
2021/05/29 11:38:22;;;;;;;7.15;4.00;;;;;;;29.58;30.24;102643.03;5073313;28;20036;-72
2021/05/29 11:40:51;;;;;;;7.43;4.40;;;;;;;29.53;29.89;102647.00;5055110;28;20035;-72
2021/05/29 11:43:34;;;;;;;8.13;5.10;;;;;;;29.45;30.53;102650.19;5073010;28;20508;-72